createdAt,value
2023-01-17T00:02:15.295Z,94.14
2023-01-17T00:05:02.100Z,94.40
2023-01-17T00:07:49.286Z,94.29
2023-01-17T00:10:22.715Z,94.93
2023-01-17T00:12:53.798Z,94.84
2023-01-17T00:15:25.641Z,95.04
2023-01-17T00:17:54.488Z,94.81
2023-01-17T00:20:44.308Z,94.00
2023-01-17T00:23:38.795Z,93.79
2023-01-17T00:26:16.774Z,94.61
2023-01-17T00:28:46.056Z,94.89
2023-01-17T00:31:15.720Z,94.93
2023-01-17T00:33:44.041Z,95.00
2023-01-17T00:36:12.579Z,94.35
2023-01-17T00:38:43.691Z,94.54
2023-01-17T00:41:14.332Z,94.04
2023-01-17T00:44:01.180Z,94.31
2023-01-17T00:46:47.958Z,94.53
2023-01-17T00:49:34.643Z,94.55
2023-01-17T00:52:21.388Z,94.71
2023-01-17T00:55:08.047Z,94.96
2023-01-17T00:57:54.709Z,95.08
2023-01-17T01:00:41.643Z,94.91
2023-01-17T01:03:30.170Z,95.02
2023-01-17T01:06:17.061Z,94.97
2023-01-17T01:09:06.728Z,94.60
2023-01-17T01:11:53.465Z,94.57
2023-01-17T01:14:40.412Z,94.15
2023-01-17T01:17:30.598Z,93.80
2023-01-17T01:20:20.535Z,93.61
2023-01-17T01:23:07.201Z,93.77
2023-01-17T01:25:55.312Z,94.10
2023-01-17T01:28:42.468Z,94.66
2023-01-17T01:31:31.595Z,95.05
2023-01-17T01:33:59.723Z,94.66
2023-01-17T01:36:27.745Z,94.56
2023-01-17T01:38:56.940Z,95.05
2023-01-17T01:41:25.079Z,95.28
2023-01-17T01:43:55.839Z,95.44
2023-01-17T01:46:39.747Z,95.50
2023-01-17T01:49:21.713Z,95.22
2023-01-17T01:51:55.624Z,95.45
2023-01-17T01:54:44.776Z,95.32
2023-01-17T01:57:17.675Z,95.23
2023-01-17T01:59:51.860Z,95.74
2023-01-17T02:02:20.145Z,94.56
2023-01-17T02:04:49.459Z,94.96
2023-01-17T02:07:28.899Z,95.65
2023-01-17T02:09:58.744Z,95.12
2023-01-17T02:12:27.677Z,95.13
2023-01-17T02:14:56.249Z,95.34
2023-01-17T02:17:52.617Z,95.46
2023-01-17T02:20:32.152Z,95.33
2023-01-17T02:23:26.257Z,95.48
2023-01-17T02:26:10.368Z,95.09
2023-01-17T02:29:06.990Z,95.47
2023-01-17T02:32:12.438Z,95.47
2023-01-17T02:34:47.668Z,95.58
2023-01-17T02:37:49.044Z,95.43
2023-01-17T02:40:25.168Z,95.59
2023-01-17T02:42:58.805Z,95.52
2023-01-17T02:45:27.194Z,95.52
2023-01-17T02:47:55.372Z,95.84
2023-01-17T02:50:49.452Z,96.03
2023-01-17T02:53:28.094Z,96.02
2023-01-17T02:56:32.713Z,95.77
2023-01-17T02:59:00.871Z,95.83
2023-01-17T03:01:35.123Z,95.89
2023-01-17T03:04:22.209Z,95.40
2023-01-17T03:06:59.045Z,95.51
2023-01-17T03:09:30.943Z,95.43
2023-01-17T03:11:59.728Z,95.52
2023-01-17T03:14:31.095Z,95.71
2023-01-17T03:16:59.633Z,95.60
2023-01-17T03:19:27.745Z,95.62
2023-01-17T03:21:55.787Z,95.81
2023-01-17T03:24:23.937Z,95.57
2023-01-17T03:26:52.006Z,95.50
2023-01-17T03:29:20.495Z,96.03
2023-01-17T03:31:48.838Z,95.76
2023-01-17T03:34:16.939Z,96.29
2023-01-17T03:36:45.151Z,96.29
2023-01-17T03:39:13.323Z,96.04
2023-01-17T03:41:41.363Z,96.14
2023-01-17T03:44:09.656Z,95.61
2023-01-17T03:46:38.008Z,95.83
2023-01-17T03:49:06.347Z,96.02
2023-01-17T03:51:34.491Z,96.00
2023-01-17T03:54:02.664Z,96.00
2023-01-17T03:56:30.859Z,96.12
2023-01-17T03:58:59.025Z,96.37
2023-01-17T04:01:27.097Z,96.34
2023-01-17T04:03:55.447Z,96.45
2023-01-17T04:06:28.545Z,96.36
2023-01-17T04:08:56.611Z,96.56
2023-01-17T04:11:27.972Z,96.44
2023-01-17T04:13:58.680Z,96.68
2023-01-17T04:16:30.746Z,96.84
2023-01-17T04:18:59.015Z,97.09
2023-01-17T04:21:27.263Z,96.99
2023-01-17T04:23:55.326Z,97.06
2023-01-17T04:26:23.751Z,97.06
2023-01-17T04:28:51.899Z,97.08
2023-01-17T04:31:20.124Z,96.78
2023-01-17T04:33:48.280Z,96.70
2023-01-17T04:36:16.432Z,96.42
2023-01-17T04:38:44.725Z,96.45
2023-01-17T04:41:13.259Z,96.02
2023-01-17T04:43:41.351Z,96.05
2023-01-17T04:46:11.016Z,96.37
2023-01-17T04:48:39.363Z,96.45
2023-01-17T04:51:07.652Z,96.31
2023-01-17T04:53:35.942Z,95.57
2023-01-17T04:56:04.560Z,95.72
2023-01-17T04:58:33.503Z,96.09
2023-01-17T05:01:04.201Z,96.21
2023-01-17T05:03:33.427Z,96.29
2023-01-17T05:06:01.896Z,96.05
2023-01-17T05:08:30.404Z,95.97
2023-01-17T05:10:58.735Z,96.80
2023-01-17T05:13:30.278Z,96.12
2023-01-17T05:15:58.832Z,95.32
2023-01-17T05:18:27.269Z,97.39
2023-01-17T05:21:01.700Z,96.68
2023-01-17T05:23:30.244Z,97.12
2023-01-17T05:25:58.535Z,97.01
2023-01-17T05:28:26.886Z,97.02
2023-01-17T05:30:55.311Z,97.16
2023-01-17T05:33:23.468Z,97.71
2023-01-17T05:35:52.004Z,97.75
2023-01-17T05:38:20.472Z,97.78
2023-01-17T05:40:51.028Z,97.44
2023-01-17T05:43:19.845Z,97.63
2023-01-17T05:45:51.652Z,97.80
2023-01-17T05:48:20.683Z,97.81
2023-01-17T05:50:48.979Z,97.83
2023-01-17T05:53:17.764Z,97.88
2023-01-17T05:55:46.045Z,97.93
2023-01-17T05:58:17.436Z,97.85
2023-01-17T06:00:45.872Z,97.92
2023-01-17T06:03:14.227Z,97.21
2023-01-17T06:05:43.016Z,96.90
2023-01-17T06:08:11.439Z,97.01
2023-01-17T06:10:40.070Z,97.14
2023-01-17T06:13:15.375Z,97.04
2023-01-17T06:15:46.848Z,96.98
2023-01-17T06:18:17.547Z,96.77
2023-01-17T06:20:45.834Z,96.80
2023-01-17T06:23:16.737Z,96.49
2023-01-17T06:25:46.846Z,96.31
2023-01-17T06:28:17.692Z,96.32
2023-01-17T06:30:46.361Z,96.71
2023-01-17T06:33:15.127Z,97.07
2023-01-17T06:35:51.038Z,96.88
2023-01-17T06:38:19.644Z,97.62
2023-01-17T06:40:47.887Z,97.91
2023-01-17T06:43:16.252Z,97.99
2023-01-17T06:45:49.358Z,98.22
2023-01-17T06:48:19.141Z,98.02
2023-01-17T06:50:49.902Z,97.96
2023-01-17T06:53:18.284Z,98.20
2023-01-17T06:55:46.833Z,98.32
2023-01-17T06:58:15.127Z,98.12
2023-01-17T07:00:44.131Z,98.41
2023-01-17T07:03:20.182Z,98.18
2023-01-17T07:05:49.079Z,98.16
2023-01-17T07:08:22.616Z,97.70
2023-01-17T07:11:01.625Z,97.25
2023-01-17T07:13:36.218Z,97.47
2023-01-17T07:16:06.213Z,97.54
2023-01-17T07:18:35.294Z,97.41
2023-01-17T07:21:03.372Z,97.65
2023-01-17T07:23:31.623Z,97.72
2023-01-17T07:26:01.179Z,97.69
2023-01-17T07:28:29.548Z,97.89
2023-01-17T07:31:08.071Z,98.05
2023-01-17T07:33:36.606Z,98.27
2023-01-17T07:36:07.604Z,98.30
2023-01-17T07:38:36.139Z,98.29
2023-01-17T07:41:04.483Z,98.15
2023-01-17T07:43:32.674Z,98.24
2023-01-17T07:46:02.193Z,98.00
2023-01-17T07:48:30.982Z,97.60
2023-01-17T07:51:02.011Z,97.49
2023-01-17T07:53:33.078Z,97.26
2023-01-17T07:56:06.366Z,97.14
2023-01-17T07:58:35.810Z,97.55
2023-01-17T08:01:07.356Z,97.21
2023-01-17T08:03:40.183Z,97.24
2023-01-17T08:06:23.893Z,97.31
2023-01-17T08:08:56.438Z,97.15
2023-01-17T08:11:25.200Z,97.60
2023-01-17T08:13:59.474Z,97.58
2023-01-17T08:16:28.857Z,97.16
2023-01-17T08:18:59.749Z,96.99
2023-01-17T08:21:31.067Z,97.59
2023-01-17T08:23:59.298Z,98.24
2023-01-17T08:26:27.658Z,98.34
2023-01-17T08:29:00.269Z,98.55
2023-01-17T08:31:30.729Z,98.97
2023-01-17T08:34:01.693Z,99.03
2023-01-17T08:36:31.316Z,99.13
2023-01-17T08:38:59.787Z,99.36
2023-01-17T08:41:28.256Z,99.48
2023-01-17T08:43:56.568Z,99.41
2023-01-17T08:46:24.959Z,99.40
2023-01-17T08:48:58.756Z,99.29
2023-01-17T08:51:27.616Z,99.35
2023-01-17T08:53:56.823Z,99.27
2023-01-17T08:56:27.967Z,99.16
2023-01-17T08:58:56.245Z,99.28
2023-01-17T09:01:24.752Z,99.22
2023-01-17T09:03:56.601Z,99.01
2023-01-17T09:06:24.936Z,98.72
2023-01-17T09:08:54.940Z,98.76
2023-01-17T09:11:23.298Z,98.86
2023-01-17T09:13:51.560Z,98.74
2023-01-17T09:16:20.052Z,98.59
2023-01-17T09:18:57.900Z,98.00
2023-01-17T09:21:27.093Z,98.71
2023-01-17T09:23:55.610Z,99.69
2023-01-17T09:26:29.364Z,99.79
2023-01-17T09:28:58.794Z,100.00
2023-01-17T09:31:27.955Z,99.90
2023-01-17T09:33:57.774Z,100.00
2023-01-17T09:36:31.967Z,100.00
2023-01-17T09:39:01.999Z,100.00
2023-01-17T09:41:33.460Z,100.00
2023-01-17T09:44:27.667Z,100.00
2023-01-17T09:46:59.014Z,100.00
2023-01-17T09:49:35.731Z,100.00
2023-01-17T09:52:14.935Z,100.00
2023-01-17T09:54:45.520Z,100.00
2023-01-17T09:57:21.268Z,100.00
2023-01-17T10:00:13.201Z,100.00
2023-01-17T10:03:09.905Z,100.00
2023-01-17T10:05:48.681Z,100.00
2023-01-17T10:08:26.610Z,100.00
2023-01-17T10:11:32.374Z,100.00
2023-01-17T10:14:37.195Z,99.95
2023-01-17T10:17:29.771Z,99.30
2023-01-17T10:20:34.171Z,99.04
2023-01-17T10:23:32.018Z,97.97
2023-01-17T10:26:09.101Z,97.79
2023-01-17T10:28:49.667Z,98.16
2023-01-17T10:31:25.040Z,98.17
2023-01-17T10:34:03.816Z,97.78
2023-01-17T10:36:38.702Z,97.94
2023-01-17T10:39:29.338Z,98.04
2023-01-17T10:42:27.177Z,98.08
2023-01-17T10:45:15.399Z,98.01
2023-01-17T10:47:54.140Z,95.99
2023-01-17T10:50:24.792Z,96.15
2023-01-17T10:52:53.400Z,94.93
2023-01-17T10:55:31.340Z,94.44
2023-01-17T10:57:59.513Z,94.49
2023-01-17T11:00:52.553Z,93.00
2023-01-17T11:03:29.126Z,91.99
2023-01-17T11:06:20.291Z,91.34
2023-01-17T11:09:03.558Z,90.94
2023-01-17T11:11:37.617Z,89.66
2023-01-17T11:14:17.552Z,86.86
2023-01-17T11:16:46.569Z,87.39
2023-01-17T11:19:28.640Z,88.34
2023-01-17T11:22:04.888Z,87.13
2023-01-17T11:24:42.180Z,86.40
2023-01-17T11:27:25.519Z,86.40
2023-01-17T11:30:16.569Z,86.29
2023-01-17T11:32:58.427Z,85.89
2023-01-17T11:35:31.114Z,84.81
2023-01-17T11:37:59.313Z,84.28
2023-01-17T11:40:36.613Z,83.46
2023-01-17T11:43:28.450Z,82.54
2023-01-17T11:46:20.614Z,81.90
2023-01-17T11:48:56.989Z,82.51
2023-01-17T11:51:41.584Z,80.49
2023-01-17T11:54:40.458Z,80.63
2023-01-17T11:57:23.999Z,78.18
2023-01-17T11:59:59.677Z,79.51
2023-01-17T12:02:33.619Z,78.01
2023-01-17T12:05:01.646Z,78.50
2023-01-17T12:07:58.939Z,76.89
2023-01-17T12:10:29.996Z,76.10
2023-01-17T12:13:51.433Z,75.97
2023-01-17T12:16:42.106Z,76.26
2023-01-17T12:19:16.420Z,76.55
2023-01-17T12:22:03.303Z,74.10
2023-01-17T12:24:47.918Z,73.40
2023-01-17T12:27:34.655Z,73.16
2023-01-17T12:30:24.929Z,73.87
2023-01-17T12:33:19.362Z,71.82
2023-01-17T12:35:58.528Z,69.59
2023-01-17T12:38:33.612Z,69.78
2023-01-17T12:41:26.601Z,71.64
2023-01-17T12:43:59.052Z,67.62
2023-01-17T12:46:34.076Z,69.28
2023-01-17T12:49:40.740Z,68.69
2023-01-17T12:52:25.162Z,68.77
2023-01-17T12:55:03.191Z,67.32
2023-01-17T12:57:42.109Z,67.14
2023-01-17T13:00:23.255Z,67.49
2023-01-17T13:02:56.743Z,65.26
2023-01-17T13:05:24.750Z,67.70
2023-01-17T13:08:06.760Z,66.40
2023-01-17T13:10:51.183Z,67.58
2023-01-17T13:13:26.094Z,66.67
2023-01-17T13:16:17.691Z,68.21
2023-01-17T13:18:51.783Z,69.27
2023-01-17T13:21:34.577Z,69.12
2023-01-17T13:24:17.524Z,70.16
2023-01-17T13:27:20.583Z,71.15
2023-01-17T13:30:34.695Z,70.01
2023-01-17T13:33:37.240Z,70.95
2023-01-17T13:36:14.874Z,69.77
2023-01-17T13:38:57.654Z,70.53
2023-01-17T13:41:47.732Z,71.09
2023-01-17T13:44:22.506Z,71.03
2023-01-17T13:47:10.859Z,71.08
2023-01-17T13:49:44.706Z,71.63
2023-01-17T13:52:23.165Z,72.33
2023-01-17T13:54:56.830Z,72.32
2023-01-17T13:57:30.040Z,71.60
2023-01-17T14:00:16.428Z,71.27
2023-01-17T14:02:46.611Z,71.58
2023-01-17T14:05:21.346Z,72.07
2023-01-17T14:08:02.336Z,72.77
2023-01-17T14:10:41.662Z,73.40
2023-01-17T14:13:33.918Z,73.40
2023-01-17T14:16:05.500Z,73.59
2023-01-17T14:18:36.877Z,73.86
2023-01-17T14:21:35.711Z,74.07
2023-01-17T14:24:06.601Z,74.08
2023-01-17T14:26:56.293Z,74.39
2023-01-17T14:29:42.815Z,74.26
2023-01-17T14:32:13.976Z,74.46
2023-01-17T14:34:45.974Z,74.66
2023-01-17T14:37:33.505Z,75.03
2023-01-17T14:40:02.289Z,75.24
2023-01-17T14:42:33.762Z,75.47
2023-01-17T14:45:13.932Z,75.67
2023-01-17T14:47:46.023Z,76.01
2023-01-17T14:50:30.008Z,76.30
2023-01-17T14:53:20.105Z,76.58
2023-01-17T14:55:48.527Z,76.94
2023-01-17T14:58:21.201Z,76.93
2023-01-17T15:00:51.749Z,77.07
2023-01-17T15:03:20.384Z,77.29
2023-01-17T15:05:51.985Z,77.64
2023-01-17T15:08:23.885Z,78.08
2023-01-17T15:11:03.161Z,78.40
2023-01-17T15:13:44.698Z,78.76
2023-01-17T15:16:25.606Z,79.25
2023-01-17T15:18:55.985Z,79.46
2023-01-17T15:21:42.541Z,79.55
2023-01-17T15:24:21.515Z,79.76
2023-01-17T15:26:52.692Z,80.17
2023-01-17T15:29:26.690Z,80.32
2023-01-17T15:32:01.188Z,80.57
2023-01-17T15:34:30.514Z,80.53
2023-01-17T15:37:08.123Z,80.55
2023-01-17T15:39:39.586Z,80.60
2023-01-17T15:42:38.757Z,81.36
2023-01-17T15:45:13.059Z,80.99
2023-01-17T15:47:41.444Z,81.19
2023-01-17T15:50:26.558Z,81.25
2023-01-17T15:53:01.032Z,80.89
2023-01-17T15:55:34.948Z,81.80
2023-01-17T15:58:05.359Z,82.24
2023-01-17T16:00:40.594Z,82.50
2023-01-17T16:03:23.495Z,82.72
2023-01-17T16:05:54.220Z,81.58
2023-01-17T16:08:31.179Z,82.34
2023-01-17T16:11:02.429Z,81.64
2023-01-17T16:13:43.433Z,82.68
2023-01-17T16:16:17.831Z,82.85
2023-01-17T16:18:57.755Z,83.06
2023-01-17T16:21:30.417Z,83.26
2023-01-17T16:24:00.119Z,83.42
2023-01-17T16:26:29.409Z,84.24
2023-01-17T16:28:57.882Z,84.73
2023-01-17T16:31:26.000Z,84.39
2023-01-17T16:33:59.372Z,84.19
2023-01-17T16:36:27.784Z,84.10
2023-01-17T16:38:56.102Z,84.26
2023-01-17T16:41:24.375Z,84.21
2023-01-17T16:44:04.969Z,84.09
2023-01-17T16:46:36.229Z,84.19
2023-01-17T16:49:05.088Z,84.21
2023-01-17T16:51:34.514Z,84.10
2023-01-17T16:54:05.152Z,83.97
2023-01-17T16:56:33.394Z,83.94
2023-01-17T16:59:01.635Z,84.00
2023-01-17T17:01:30.038Z,84.13
2023-01-17T17:03:58.095Z,83.94
2023-01-17T17:06:26.325Z,84.17
2023-01-17T17:08:54.402Z,84.59
2023-01-17T17:11:23.896Z,84.46
2023-01-17T17:13:52.273Z,84.51
2023-01-17T17:16:32.919Z,84.61
2023-01-17T17:19:07.595Z,84.66
2023-01-17T17:21:40.390Z,84.89
2023-01-17T17:24:12.725Z,84.21
2023-01-17T17:26:41.092Z,84.68
2023-01-17T17:29:12.112Z,84.52
2023-01-17T17:31:41.537Z,84.22
2023-01-17T17:34:12.110Z,84.65
2023-01-17T17:36:41.225Z,84.80
2023-01-17T17:39:14.927Z,85.10
2023-01-17T17:41:45.932Z,85.23
2023-01-17T17:44:17.572Z,85.33
2023-01-17T17:46:49.242Z,85.37
2023-01-17T17:49:17.314Z,85.29
2023-01-17T17:51:45.373Z,85.24
2023-01-17T17:54:15.016Z,85.11
2023-01-17T17:56:49.476Z,84.94
2023-01-17T17:59:20.349Z,84.73
2023-01-17T18:01:51.935Z,84.72
2023-01-17T18:04:20.063Z,85.03
2023-01-17T18:06:48.614Z,84.75
2023-01-17T18:09:16.865Z,84.79
2023-01-17T18:11:48.383Z,84.94
2023-01-17T18:14:17.793Z,84.52
2023-01-17T18:16:47.122Z,84.41
2023-01-17T18:19:22.238Z,84.58
2023-01-17T18:21:51.504Z,84.87
2023-01-17T18:24:24.532Z,84.66
2023-01-17T18:26:54.429Z,84.97
2023-01-17T18:29:24.028Z,84.92
2023-01-17T18:31:53.177Z,84.80
2023-01-17T18:34:24.689Z,85.00
2023-01-17T18:36:53.197Z,84.81
2023-01-17T18:39:27.361Z,84.89
2023-01-17T18:41:55.616Z,84.63
2023-01-17T18:44:24.535Z,84.50
2023-01-17T18:46:55.888Z,84.37
2023-01-17T18:49:24.034Z,84.30
2023-01-17T18:51:52.103Z,84.24
2023-01-17T18:54:20.690Z,84.01
2023-01-17T18:56:48.997Z,83.92
2023-01-17T18:59:21.487Z,84.00
2023-01-17T19:01:50.179Z,84.20
2023-01-17T19:04:18.932Z,84.35
2023-01-17T19:06:48.237Z,84.33
2023-01-17T19:09:17.316Z,84.52
2023-01-17T19:11:47.459Z,84.43
2023-01-17T19:14:15.901Z,84.41
2023-01-17T19:16:45.004Z,84.02
2023-01-17T19:19:15.393Z,84.27
2023-01-17T19:21:44.040Z,84.39
2023-01-17T19:24:13.307Z,84.57
2023-01-17T19:26:43.122Z,84.66
2023-01-17T19:29:12.330Z,84.95
2023-01-17T19:31:42.766Z,85.04
2023-01-17T19:34:14.246Z,85.22
2023-01-17T19:36:42.578Z,85.22
2023-01-17T19:39:10.865Z,85.19
2023-01-17T19:41:44.758Z,85.16
2023-01-17T19:44:14.591Z,85.15
2023-01-17T19:46:46.041Z,84.82
2023-01-17T19:49:16.522Z,84.69
2023-01-17T19:51:44.765Z,84.24
2023-01-17T19:54:15.236Z,84.29
2023-01-17T19:56:43.509Z,84.56
2023-01-17T19:59:14.089Z,84.42
2023-01-17T20:01:45.114Z,84.12
2023-01-17T20:04:18.162Z,84.55
2023-01-17T20:06:46.913Z,84.54
2023-01-17T20:09:14.935Z,84.27
2023-01-17T20:11:46.850Z,85.15
2023-01-17T20:14:15.360Z,85.05
2023-01-17T20:16:47.535Z,85.11
2023-01-17T20:19:16.467Z,85.48
2023-01-17T20:21:44.536Z,86.34
2023-01-17T20:24:16.857Z,86.35
2023-01-17T20:26:46.032Z,86.42
2023-01-17T20:29:15.952Z,86.67
2023-01-17T20:31:45.634Z,86.67
2023-01-17T20:34:14.612Z,86.36
2023-01-17T20:36:42.788Z,86.41
2023-01-17T20:39:17.082Z,86.33
2023-01-17T20:41:50.029Z,85.85
2023-01-17T20:44:23.009Z,85.91
2023-01-17T20:46:51.288Z,85.79
2023-01-17T20:49:20.049Z,86.23
2023-01-17T20:51:48.346Z,86.35
2023-01-17T20:54:18.636Z,86.57
2023-01-17T20:56:47.836Z,86.41
2023-01-17T20:59:21.803Z,86.38
2023-01-17T21:01:50.518Z,86.54
2023-01-17T21:04:25.848Z,86.68
2023-01-17T21:06:54.785Z,86.82
2023-01-17T21:09:23.671Z,87.15
2023-01-17T21:11:52.045Z,87.62
2023-01-17T21:14:21.805Z,87.49
2023-01-17T21:16:53.006Z,87.54
2023-01-17T21:19:21.286Z,87.90
2023-01-17T21:21:50.236Z,87.95
2023-01-17T21:24:19.613Z,87.94
2023-01-17T21:26:49.686Z,88.05
2023-01-17T21:29:17.825Z,88.13
2023-01-17T21:31:46.081Z,88.13
2023-01-17T21:34:14.305Z,87.97
2023-01-17T21:36:43.209Z,87.89
2023-01-17T21:39:15.841Z,87.76
2023-01-17T21:41:47.981Z,87.56
2023-01-17T21:44:19.776Z,87.89
2023-01-17T21:46:49.357Z,87.63
2023-01-17T21:49:17.695Z,87.38
2023-01-17T21:51:54.836Z,88.10
2023-01-17T21:54:47.066Z,88.52
2023-01-17T21:57:39.486Z,88.37
2023-01-17T22:00:11.018Z,88.61
2023-01-17T22:02:46.980Z,88.75
2023-01-17T22:05:16.865Z,88.96
2023-01-17T22:08:05.420Z,89.20
2023-01-17T22:10:44.517Z,88.67
2023-01-17T22:13:15.392Z,88.51
2023-01-17T22:15:44.609Z,89.41
2023-01-17T22:18:14.523Z,89.62
2023-01-17T22:20:42.982Z,89.24
2023-01-17T22:23:12.051Z,89.09
2023-01-17T22:25:40.233Z,89.96
2023-01-17T22:28:08.383Z,90.10
2023-01-17T22:30:36.407Z,90.22
2023-01-17T22:33:04.576Z,90.21
2023-01-17T22:35:32.968Z,90.12
2023-01-17T22:38:01.590Z,90.33
2023-01-17T22:40:31.649Z,90.37
2023-01-17T22:42:59.890Z,90.38
2023-01-17T22:45:31.207Z,90.42
2023-01-17T22:47:59.195Z,90.38
2023-01-17T22:50:29.629Z,90.64
2023-01-17T22:52:58.098Z,90.49
2023-01-17T22:55:26.358Z,90.39
2023-01-17T22:57:54.617Z,91.42
2023-01-17T23:00:22.950Z,90.37
2023-01-17T23:02:51.126Z,91.31
2023-01-17T23:05:20.251Z,91.61
2023-01-17T23:07:50.250Z,91.83
2023-01-17T23:10:38.387Z,91.80
2023-01-17T23:13:10.352Z,92.53
2023-01-17T23:15:59.673Z,93.04
2023-01-17T23:18:46.706Z,92.99
2023-01-17T23:21:18.031Z,92.47
2023-01-17T23:23:46.475Z,92.61
2023-01-17T23:26:14.593Z,93.00
2023-01-17T23:28:42.820Z,93.07
2023-01-17T23:31:12.539Z,93.39
2023-01-17T23:33:40.863Z,93.35
2023-01-17T23:36:09.426Z,93.31
2023-01-17T23:38:40.660Z,92.69
2023-01-17T23:41:27.749Z,93.28
2023-01-17T23:43:58.702Z,93.40
2023-01-17T23:46:27.288Z,93.40
2023-01-17T23:48:55.441Z,93.61
2023-01-17T23:51:23.521Z,93.80
2023-01-17T23:53:57.347Z,93.76
2023-01-17T23:56:25.770Z,93.51
2023-01-17T23:58:54.185Z,93.59
